Time;durP1;ratioP1;P1;durP2;ratioP2;P2;SDS_P1;SDS_P2;PMS_P1;PMS_P2;Temp;Humidity;BMP_temperature;BMP_pressure;BME280_temperature;BME280_humidity;BME280_pressure;Samples;Min_cycle;Max_cycle;Signal;HPM_P1;HPM_P2
2024/04/15 00:02:17;;;;;;;5.43;4.93;;;14.80;81.20;;;14.11;75.96;97591.72;5438969;26;20533;-76
2024/04/15 00:04:47;;;;;;;5.93;5.43;;;14.80;81.20;;;14.17;76.06;97569.00;5458639;26;20513;-76
2024/04/15 00:07:13;;;;;;;6.90;6.13;;;14.70;81.50;;;14.21;76.42;97593.78;5465609;26;20517;-78
2024/04/15 00:09:42;;;;;;;6.10;5.57;;;14.80;81.50;;;14.17;75.77;97571.72;5424237;26;20474;-78
2024/04/15 00:12:11;;;;;;;5.90;5.40;;;14.70;81.20;;;13.60;76.84;97532.03;5429379;26;20459;-78
2024/04/15 00:14:40;;;;;;;5.93;5.30;;;14.50;81.20;;;13.76;77.70;97573.81;5454835;26;20455;-77
2024/04/15 00:17:06;;;;;;;5.90;5.30;;;14.40;81.80;;;13.64;76.29;97573.06;5459549;26;20522;-76
2024/04/15 00:19:35;;;;;;;7.37;4.70;;;14.30;80.90;;;13.61;76.09;97566.25;5459589;26;20450;-75
2024/04/15 00:22:02;;;;;;;5.13;4.67;;;14.30;80.70;;;13.41;76.43;97531.41;5450111;26;20455;-76
2024/04/15 00:24:31;;;;;;;5.40;4.90;;;14.20;81.20;;;13.70;76.35;97523.22;5440772;26;20944;-75
2024/04/15 00:26:57;;;;;;;5.30;4.80;;;14.30;81.00;;;13.90;75.36;97524.63;5451723;26;20454;-75
2024/04/15 00:29:28;;;;;;;4.23;3.93;;;14.40;80.80;;;14.02;74.46;97525.31;5424601;26;20467;-75
2024/04/15 00:31:55;;;;;;;5.00;4.50;;;14.50;80.50;;;13.83;75.03;97525.59;5460264;26;20456;-75
2024/04/15 00:34:24;;;;;;;5.77;4.40;;;14.40;80.60;;;13.71;74.82;97511.28;5454076;26;20609;-76
2024/04/15 00:36:50;;;;;;;4.90;4.40;;;14.30;80.30;;;13.49;73.19;97487.63;5425225;26;20837;-76
2024/04/15 00:39:19;;;;;;;5.03;4.23;;;14.30;79.80;;;13.80;73.53;97517.94;5418136;26;20573;-77
2024/04/15 00:41:45;;;;;;;5.13;4.63;;;14.30;79.50;;;13.82;73.46;97513.09;5454297;26;20456;-77
2024/04/15 00:44:14;;;;;;;8.00;4.47;;;14.30;79.60;;;13.64;72.35;97510.66;5439883;26;20479;-76
2024/04/15 00:46:44;;;;;;;5.07;3.93;;;14.30;79.00;;;13.53;73.20;97521.34;5465698;26;20795;-76
2024/04/15 00:49:14;;;;;;;4.93;4.30;;;14.20;78.90;;;13.26;73.80;97511.09;5468151;26;20468;-77
2024/04/15 00:51:42;;;;;;;5.37;4.60;;;14.10;79.00;;;13.25;74.73;97525.72;5463294;26;20592;-77
2024/04/15 00:54:12;;;;;;;5.27;4.43;;;14.10;79.40;;;13.37;75.78;97530.25;5431866;26;20471;-76
2024/04/15 00:56:39;;;;;;;5.30;4.80;;;14.00;79.70;;;13.37;74.53;97533.81;5461511;26;20514;-76
2024/04/15 00:59:09;;;;;;;4.50;4.10;;;14.10;79.70;;;13.23;75.09;97535.19;5451039;26;21741;-77
2024/04/15 01:01:35;;;;;;;4.60;3.83;;;13.90;79.40;;;13.14;76.00;97534.78;5463017;26;20639;-76
2024/04/15 01:04:07;;;;;;;4.80;4.40;;;13.80;79.60;;;12.79;75.30;97451.69;5460059;26;20578;-76
2024/04/15 01:06:33;;;;;;;3.80;3.50;;;13.80;79.70;;;12.84;76.05;97535.84;5464043;26;20456;-77
2024/04/15 01:09:02;;;;;;;4.70;4.17;;;13.60;79.60;;;12.83;76.54;97507.09;5468021;26;20506;-78
2024/04/15 01:11:29;;;;;;;4.17;3.77;;;13.60;79.90;;;12.74;77.80;97512.09;5466150;26;20557;-78
2024/04/15 01:13:58;;;;;;;5.00;4.60;;;13.50;80.20;;;12.73;79.50;97524.81;5455046;26;20990;-77
2024/04/15 01:16:35;;;;;;;4.83;4.43;;;13.40;80.90;;;12.49;83.28;97551.16;5425200;26;21082;-76
2024/04/15 01:19:03;;;;;;;5.23;4.70;;;13.30;82.60;;;12.32;85.50;97556.47;5454027;26;20461;-76
2024/04/15 01:21:32;;;;;;;4.93;4.53;;;13.20;84.20;;;12.22;86.69;97583.34;5457077;26;20458;-76
2024/04/15 01:24:05;;;;;;;6.77;4.73;;;13.00;85.40;;;12.00;88.73;97548.72;5420345;26;20946;-77
2024/04/15 01:26:31;;;;;;;6.17;5.37;;;12.80;86.50;;;11.99;91.28;97552.47;5443807;26;20969;-77
2024/04/15 01:29:00;;;;;;;5.17;4.70;;;12.70;88.40;;;11.74;91.76;97545.41;5422960;26;20548;-76
2024/04/15 01:31:26;;;;;;;5.63;4.60;;;12.50;89.00;;;11.76;94.32;97532.50;5443875;26;20504;-74
2024/04/15 01:33:56;;;;;;;7.63;6.43;;;12.40;90.40;;;11.77;94.87;97509.78;5464690;26;20511;-76
2024/04/15 01:36:24;;;;;;;5.27;4.87;;;12.40;91.60;;;11.51;95.88;97490.22;5424920;26;20506;-77
2024/04/15 01:38:51;;;;;;;5.70;5.20;;;12.40;92.00;;;11.76;96.29;97524.38;5460855;26;20459;-76
2024/04/15 01:41:22;;;;;;;6.50;5.70;;;12.40;92.50;;;11.74;97.34;97530.00;5433170;26;20473;-78
2024/04/15 01:43:48;;;;;;;6.90;5.80;;;12.40;93.00;;;11.87;97.42;97534.34;5446164;26;20840;-77
2024/04/15 01:46:18;;;;;;;5.43;5.03;;;12.40;93.80;;;11.85;98.59;97522.94;5461774;26;20446;-76
2024/04/15 01:48:44;;;;;;;5.60;5.00;;;12.40;93.60;;;11.52;99.54;97459.41;5437674;26;20460;-75
2024/04/15 01:51:13;;;;;;;5.67;5.17;;;12.40;95.10;;;11.88;100.00;97513.53;5429633;26;21022;-76
2024/04/15 01:53:39;;;;;;;6.70;6.00;;;12.50;95.20;;;11.85;100.00;97539.19;5419745;26;20562;-81
2024/04/15 01:56:08;;;;;;;4.60;4.17;;;12.50;95.30;;;11.81;100.00;97529.06;5452457;26;21488;-81
2024/04/15 01:58:37;;;;;;;6.00;5.50;;;12.40;95.60;;;11.91;100.00;97523.88;5430142;26;20457;-79
2024/04/15 02:01:07;;;;;;;10.30;5.80;;;12.40;96.40;;;11.89;100.00;97521.41;5451997;26;20461;-79
2024/04/15 02:03:33;;;;;;;5.87;5.10;;;12.50;96.50;;;11.89;99.77;97523.28;5435236;26;20984;-78
2024/04/15 02:06:02;;;;;;;6.10;5.53;;;12.50;95.10;;;12.01;100.00;97524.16;5453794;26;20847;-78
2024/04/15 02:08:28;;;;;;;7.50;6.80;;;12.60;95.20;;;11.98;100.00;97524.59;5443817;26;20452;-77
2024/04/15 02:10:57;;;;;;;6.33;5.73;;;12.60;95.50;;;11.97;100.00;97505.88;5441419;26;21021;-78
2024/04/15 02:13:24;;;;;;;8.27;5.97;;;12.60;95.90;;;12.10;99.87;97527.31;5442354;26;20564;-78
2024/04/15 02:15:55;;;;;;;5.70;5.20;;;12.60;95.20;;;12.06;99.78;97509.06;5441585;26;20508;-79
2024/04/15 02:18:22;;;;;;;6.20;5.60;;;12.70;94.70;;;12.15;98.19;97496.81;5463222;26;20458;-79
2024/04/15 02:20:51;;;;;;;5.97;4.90;;;12.70;94.20;;;12.11;97.23;97496.47;5471144;26;20475;-80
2024/04/15 02:23:17;;;;;;;6.70;6.10;;;12.70;93.40;;;12.15;98.18;97486.00;5442981;26;20580;-79
2024/04/15 02:25:46;;;;;;;7.97;6.73;;;12.80;93.70;;;12.15;97.52;97486.00;5442720;26;20589;-79
2024/04/15 02:28:12;;;;;;;6.70;6.00;;;12.80;93.30;;;11.87;96.49;97434.19;5443199;26;20584;-80
2024/04/15 02:30:41;;;;;;;5.80;5.30;;;12.80;92.90;;;12.19;97.25;97460.88;5454509;26;20505;-81
2024/04/15 02:33:10;;;;;;;6.57;5.93;;;12.80;93.10;;;12.16;97.01;97455.13;5464364;26;20576;-79
2024/04/15 02:35:39;;;;;;;6.90;6.10;;;12.90;93.20;;;12.26;96.90;97465.34;5442284;26;20540;-80
2024/04/15 02:38:06;;;;;;;6.10;5.50;;;12.90;93.20;;;12.32;95.71;97458.97;5412468;26;21270;-79
2024/04/15 02:40:35;;;;;;;8.23;6.17;;;12.90;92.80;;;12.39;96.12;97454.25;5415067;26;20941;-80
2024/04/15 02:43:01;;;;;;;6.43;5.30;;;12.90;92.90;;;12.31;95.61;97450.03;5414588;26;20466;-81
2024/04/15 02:45:30;;;;;;;8.40;5.57;;;13.00;92.50;;;12.25;95.01;97442.84;5431885;26;20504;-81
2024/04/15 02:47:57;;;;;;;6.40;5.77;;;13.00;92.00;;;12.34;96.96;97456.84;5428037;26;20595;-80
2024/04/15 02:50:28;;;;;;;6.10;5.50;;;13.00;92.50;;;12.40;96.07;97450.47;5453743;26;20623;-80
2024/04/15 02:52:54;;;;;;;6.30;5.80;;;13.00;92.70;;;12.35;94.93;97430.56;5417199;26;20461;-78
2024/04/15 02:55:24;;;;;;;6.30;5.70;;;13.00;92.20;;;12.41;95.32;97435.84;5432888;26;20484;-80
2024/04/15 02:57:50;;;;;;;8.03;5.77;;;13.00;92.60;;;12.43;94.41;97438.31;5455751;26;20583;-81
2024/04/15 03:00:19;;;;;;;9.97;5.97;;;13.00;91.80;;;12.36;94.59;97441.19;5459664;26;20449;-82
2024/04/15 03:02:45;;;;;;;6.80;6.20;;;13.00;91.90;;;12.21;96.00;97432.72;5455546;26;20584;-79
2024/04/15 03:05:14;;;;;;;6.50;5.90;;;12.90;92.30;;;12.22;96.11;97431.69;5449450;26;20465;-84
2024/04/15 03:07:46;;;;;;;6.60;5.90;;;12.90;92.60;;;12.23;97.32;97446.88;5438658;26;20506;-81
2024/04/15 03:10:16;;;;;;;7.30;6.60;;;12.80;92.90;;;12.14;96.98;97455.38;5437510;26;20652;-80
2024/04/15 03:12:42;;;;;;;6.00;5.40;;;12.80;93.00;;;12.52;95.27;97455.84;5441780;26;20544;-81
2024/04/15 03:15:11;;;;;;;5.97;5.50;;;12.90;93.40;;;12.35;95.76;97469.31;5432546;26;20464;-81
2024/04/15 03:17:38;;;;;;;10.37;5.53;;;12.90;92.60;;;12.13;96.04;97469.13;5462111;26;21277;-80
2024/04/15 03:20:08;;;;;;;6.90;5.70;;;12.80;92.30;;;12.14;96.00;97452.66;5446458;26;20472;-80
2024/04/15 03:22:34;;;;;;;8.40;5.90;;;12.80;92.50;;;12.13;95.62;97450.19;5471952;26;20995;-80
2024/04/15 03:25:06;;;;;;;6.47;5.57;;;12.80;92.50;;;11.95;96.42;97438.41;5468831;26;20463;-82
2024/04/15 03:27:33;;;;;;;9.03;5.93;;;12.70;92.50;;;11.93;97.74;97437.03;5439295;26;20465;-79
2024/04/15 03:30:02;;;;;;;6.77;6.10;;;12.60;92.90;;;11.75;99.89;97438.81;5452413;26;20503;-80
2024/04/15 03:32:28;;;;;;;6.77;5.93;;;12.50;93.50;;;11.51;99.50;97400.97;5460258;26;20452;-79
2024/04/15 03:34:57;;;;;;;7.50;6.17;;;12.50;94.10;;;11.75;100.00;97423.41;5451175;26;20464;-80
2024/04/15 03:37:26;;;;;;;7.07;6.33;;;12.40;94.30;;;11.61;100.00;97428.25;5468790;26;20496;-78
2024/04/15 03:39:54;;;;;;;7.60;6.77;;;12.30;94.70;;;11.58;100.00;97407.06;5465583;26;20463;-81
2024/04/15 03:42:26;;;;;;;7.47;6.87;;;12.30;94.90;;;11.64;100.00;97415.31;5462180;26;20507;-81
2024/04/15 03:44:53;;;;;;;7.13;6.43;;;12.30;95.10;;;11.58;100.00;97423.28;5457209;26;20459;-81
2024/04/15 03:47:23;;;;;;;9.03;8.13;;;12.30;95.70;;;11.82;100.00;97417.84;5434969;26;20483;-79
2024/04/15 03:49:52;;;;;;;7.43;6.00;;;12.30;96.40;;;11.69;100.00;97418.94;5464873;26;20527;-81
2024/04/15 03:52:18;;;;;;;8.03;6.90;;;12.40;96.10;;;11.56;100.00;97422.72;5468631;26;20461;-80
2024/04/15 03:54:47;;;;;;;7.50;6.90;;;12.30;95.80;;;11.44;100.00;97384.00;5439473;26;20477;-80
2024/04/15 03:57:13;;;;;;;9.30;7.40;;;12.20;95.80;;;11.45;100.00;97391.91;5431693;26;20474;-79
2024/04/15 03:59:45;;;;;;;7.63;6.90;;;12.20;96.40;;;11.50;100.00;97385.78;5448874;26;21048;-79
2024/04/15 04:02:11;;;;;;;7.83;7.13;;;12.10;97.50;;;11.02;100.00;97347.13;5465536;26;20455;-81
2024/04/15 04:04:40;;;;;;;9.97;7.83;;;12.00;97.70;;;11.28;100.00;97418.81;5463540;26;20467;-79
2024/04/15 04:07:07;;;;;;;10.43;9.00;;;12.00;98.60;;;11.10;100.00;97429.75;5456166;26;20449;-80
2024/04/15 04:09:36;;;;;;;9.80;8.20;;;11.90;99.80;;;11.05;100.00;97425.88;5464608;26;20502;-79
2024/04/15 04:12:03;;;;;;;10.53;9.57;;;11.80;99.90;;;11.03;100.00;97417.19;5461742;26;20455;-79
2024/04/15 04:14:31;;;;;;;9.80;8.93;;;11.70;99.90;;;10.95;100.00;97425.63;5446630;26;20598;-80
2024/04/15 04:17:00;;;;;;;8.90;8.10;;;11.70;99.90;;;10.84;100.00;97434.50;5427940;26;20455;-79
2024/04/15 04:19:29;;;;;;;9.63;8.80;;;11.60;99.90;;;10.76;100.00;97441.91;5463128;26;20561;-79
2024/04/15 04:21:56;;;;;;;10.90;9.50;;;11.60;99.90;;;10.73;100.00;97450.47;5428245;26;20480;-78
2024/04/15 04:24:24;;;;;;;9.33;8.40;;;11.50;99.90;;;10.76;100.00;97439.22;5455693;26;20505;-79
2024/04/15 04:26:51;;;;;;;10.50;9.47;;;11.50;99.90;;;10.71;100.00;97425.59;5439194;26;20460;-78
2024/04/15 04:29:19;;;;;;;10.80;9.73;;;11.50;99.90;;;10.66;100.00;97427.31;5434075;26;20475;-78
2024/04/15 04:31:46;;;;;;;10.70;9.17;;;11.40;99.90;;;10.57;100.00;97432.22;5448888;26;20573;-78
2024/04/15 04:34:17;;;;;;;9.80;8.80;;;11.40;99.90;;;10.53;100.00;97449.91;5423311;26;20511;-76
2024/04/15 04:36:44;;;;;;;10.27;9.37;;;11.30;99.90;;;10.57;100.00;97432.22;5457668;26;20448;-79
2024/04/15 04:39:13;;;;;;;10.30;8.87;;;11.40;99.90;;;10.48;100.00;97421.72;5446995;26;20832;-75
2024/04/15 04:41:39;;;;;;;8.97;8.07;;;11.30;99.90;;;10.62;100.00;97413.44;5425125;26;20460;-77
2024/04/15 04:44:08;;;;;;;11.77;10.43;;;11.30;99.90;;;10.71;100.00;97403.97;5460864;26;20465;-76
2024/04/15 04:46:34;;;;;;;10.47;9.30;;;11.30;99.90;;;10.55;100.00;97399.22;5419663;26;20498;-75
2024/04/15 04:49:03;;;;;;;11.03;9.47;;;11.30;99.90;;;10.18;100.00;97355.03;5451969;26;20515;-76
2024/04/15 04:51:32;;;;;;;9.97;9.07;;;11.30;99.90;;;10.52;100.00;97396.97;5440488;26;20463;-76
2024/04/15 04:54:01;;;;;;;11.30;10.30;;;11.30;99.90;;;10.59;100.00;97403.09;5459213;26;20453;-74
2024/04/15 04:56:27;;;;;;;11.93;9.70;;;11.30;99.90;;;10.69;100.00;97402.53;5456008;26;20839;-75
2024/04/15 04:58:56;;;;;;;9.20;8.40;;;11.30;99.90;;;10.59;100.00;97412.00;5449095;26;20477;-77
2024/04/15 05:01:23;;;;;;;9.47;7.90;;;11.30;99.90;;;10.60;100.00;97407.44;5453736;26;20845;-75
2024/04/15 05:03:53;;;;;;;9.80;8.63;;;11.30;99.90;;;10.59;100.00;97411.22;5426561;26;20527;-76
2024/04/15 05:06:19;;;;;;;11.43;9.00;;;11.30;99.90;;;10.51;100.00;97361.03;5440662;26;21372;-76
2024/04/15 05:08:50;;;;;;;9.43;8.70;;;11.40;99.90;;;10.95;100.00;97425.63;5442667;26;20463;-77
2024/04/15 05:11:16;;;;;;;9.27;8.47;;;11.60;99.90;;;10.90;100.00;97422.78;5458963;26;20498;-75
2024/04/15 05:13:46;;;;;;;8.30;7.60;;;11.60;98.50;;;10.94;100.00;97432.06;5448265;26;21927;-74
2024/04/15 05:16:13;;;;;;;9.10;8.20;;;11.60;98.00;;;10.96;100.00;97432.66;5430618;26;20468;-76
2024/04/15 05:18:44;;;;;;;7.87;7.17;;;11.60;97.60;;;10.92;100.00;97453.13;5422023;26;20573;-78
2024/04/15 05:21:13;;;;;;;7.90;6.90;;;11.60;97.30;;;10.85;100.00;97463.22;5452653;26;20457;-82
2024/04/15 05:23:42;;;;;;;11.60;7.70;;;11.60;95.50;;;10.58;100.00;97374.44;5430277;26;20519;-77
2024/04/15 05:26:12;;;;;;;9.63;8.70;;;11.70;95.50;;;10.91;100.00;97446.06;5449069;26;20499;-79
2024/04/15 05:28:41;;;;;;;8.67;7.87;;;11.60;94.70;;;11.11;99.38;97450.31;5455669;26;20468;-78
2024/04/15 05:31:07;;;;;;;10.80;8.23;;;11.70;94.20;;;11.07;98.18;97446.44;5457162;26;20468;-77
2024/04/15 05:33:37;;;;;;;10.43;7.53;;;11.80;93.00;;;11.15;95.50;97460.44;5440965;26;20464;-80
2024/04/15 05:36:05;;;;;;;8.13;7.43;;;11.80;91.80;;;10.98;93.69;97462.97;5459439;26;20454;-84
2024/04/15 05:38:34;;;;;;;8.00;7.03;;;11.70;90.80;;;11.06;95.19;97467.22;5432581;26;20483;-75
2024/04/15 05:41:00;;;;;;;8.30;7.50;;;11.70;91.40;;;11.18;96.20;97456.47;5429353;26;20472;-79
2024/04/15 05:43:32;;;;;;;11.87;8.13;;;11.80;91.80;;;11.07;95.24;97459.97;5451150;26;20521;-80
2024/04/15 05:45:58;;;;;;;10.93;8.20;;;11.80;91.40;;;11.07;95.96;97449.16;5459754;26;20455;-78
2024/04/15 05:48:27;;;;;;;7.90;7.20;;;11.80;91.90;;;11.04;94.89;97472.88;5448540;26;20511;-78
2024/04/15 05:50:54;;;;;;;9.23;7.60;;;11.70;91.50;;;11.28;95.36;97470.22;5457267;26;21078;-78
2024/04/15 05:53:23;;;;;;;10.10;7.97;;;11.80;91.80;;;11.38;94.00;97474.22;5458163;26;20453;-77
2024/04/15 05:55:49;;;;;;;10.67;7.87;;;11.90;91.50;;;11.73;91.19;97473.41;5430098;26;21052;-74
2024/04/15 05:58:18;;;;;;;8.40;7.30;;;12.20;90.70;;;11.74;89.16;97465.06;5453951;26;20667;-77
2024/04/15 06:00:47;;;;;;;8.53;7.63;;;12.30;89.60;;;11.86;88.13;97477.75;5457724;26;21297;-75
2024/04/15 06:03:16;;;;;;;7.67;7.07;;;12.40;88.80;;;11.57;87.48;97464.94;5457046;26;20462;-72
2024/04/15 06:05:42;;;;;;;8.20;7.03;;;12.40;87.60;;;11.57;86.69;97485.78;5446714;26;20447;-73
2024/04/15 06:08:14;;;;;;;7.10;6.50;;;12.30;87.50;;;11.30;86.39;97416.72;5423961;26;20531;-85
2024/04/15 06:10:40;;;;;;;9.10;6.60;;;12.40;87.30;;;11.82;85.88;97469.28;5444050;26;21250;-72
2024/04/15 06:13:09;;;;;;;7.80;7.10;;;12.50;87.30;;;11.98;85.51;97485.84;5425791;26;20521;-74
2024/04/15 06:15:37;;;;;;;8.50;7.40;;;12.70;87.30;;;11.94;85.95;97490.09;5453364;26;20817;-73
2024/04/15 06:18:10;;;;;;;7.60;6.93;;;12.60;86.80;;;11.99;85.13;97484.78;5445409;26;20456;-71
2024/04/15 06:20:36;;;;;;;8.03;7.27;;;12.60;86.60;;;11.76;83.25;97425.03;5455434;26;20565;-73
2024/04/15 06:23:06;;;;;;;8.53;6.37;;;12.80;85.90;;;11.90;83.24;97417.50;5438486;26;20465;-72
2024/04/15 06:25:32;;;;;;;7.33;6.70;;;12.80;85.70;;;12.27;81.08;97483.25;5410468;26;20466;-74
2024/04/15 06:28:01;;;;;;;7.97;6.90;;;13.00;84.30;;;12.08;80.95;97472.59;5447255;26;20542;-73
2024/04/15 06:30:27;;;;;;;7.70;7.00;;;12.80;83.90;;;12.41;79.11;97449.41;5430376;26;20920;-74
2024/04/15 06:32:56;;;;;;;9.33;6.67;;;13.00;83.90;;;12.49;77.51;97469.03;5442703;26;21001;-74
2024/04/15 06:35:25;;;;;;;6.47;5.87;;;13.20;82.60;;;12.35;77.73;97469.31;5479766;26;20513;-75
2024/04/15 06:37:54;;;;;;;11.23;7.50;;;13.10;82.40;;;12.40;77.58;97471.31;5469907;26;21074;-74
2024/04/15 06:40:21;;;;;;;7.07;6.30;;;13.10;82.20;;;12.53;77.00;97481.06;5451881;26;20938;-74
2024/04/15 06:42:49;;;;;;;8.20;6.00;;;13.20;82.30;;;12.02;77.75;97403.13;5450792;26;20536;-71
2024/04/15 06:45:16;;;;;;;12.50;5.97;;;13.10;82.20;;;12.34;75.39;97483.91;5429301;26;20648;-79
2024/04/15 06:47:46;;;;;;;6.63;5.93;;;13.10;80.90;;;12.27;76.71;97496.78;5421718;26;20469;-74
2024/04/15 06:50:12;;;;;;;5.83;5.33;;;12.90;81.30;;;12.34;76.32;97489.34;5458614;26;20465;-79
2024/04/15 06:52:44;;;;;;;11.37;7.30;;;13.00;81.50;;;12.31;76.70;97500.66;5442142;26;20509;-78
2024/04/15 06:55:10;;;;;;;6.50;5.90;;;13.00;81.50;;;12.27;76.70;97497.59;5465787;26;20472;-78
2024/04/15 06:57:39;;;;;;;7.63;6.67;;;12.90;81.50;;;12.23;76.30;97503.75;5442281;26;20527;-78
2024/04/15 07:00:07;;;;;;;7.00;6.30;;;12.90;81.30;;;12.33;75.71;97493.94;5453165;26;20502;-79
2024/04/15 07:02:37;;;;;;;6.47;5.53;;;12.90;81.10;;;12.61;74.46;97499.63;5447293;26;20517;-78
2024/04/15 07:05:03;;;;;;;13.63;7.07;;;13.10;80.50;;;12.59;75.33;97486.34;5457021;26;20503;-78
2024/04/15 07:07:32;;;;;;;7.40;6.30;;;13.20;81.00;;;12.49;75.60;97491.53;5433302;26;21061;-77
2024/04/15 07:10:02;;;;;;;12.03;5.93;;;13.20;80.70;;;12.31;76.18;97487.94;5465388;26;20451;-77
2024/04/15 07:12:31;;;;;;;7.13;6.43;;;13.10;80.70;;;12.53;76.17;97483.75;5455561;26;20768;-75
2024/04/15 07:14:57;;;;;;;6.80;6.17;;;13.10;81.30;;;12.42;74.91;97480.84;5460845;26;20448;-78
2024/04/15 07:17:27;;;;;;;6.97;6.33;;;13.20;80.30;;;12.60;74.39;97481.72;5431163;26;20453;-79
2024/04/15 07:19:53;;;;;;;7.27;6.67;;;13.20;80.50;;;12.41;74.79;97475.66;5465746;26;20599;-78
2024/04/15 07:22:22;;;;;;;7.00;5.90;;;13.10;80.10;;;12.67;75.57;97481.59;5456674;26;20523;-77
2024/04/15 07:24:49;;;;;;;7.13;5.40;;;13.30;80.70;;;12.21;72.19;97473.34;5449695;26;20453;-77
2024/04/15 07:27:21;;;;;;;8.97;6.43;;;13.10;78.50;;;12.32;73.03;97475.22;5457030;26;20491;-80
2024/04/15 07:29:47;;;;;;;6.90;5.80;;;12.90;78.70;;;12.00;73.38;97403.34;5467873;26;20459;-78
2024/04/15 07:32:16;;;;;;;6.03;5.63;;;13.00;79.10;;;12.39;71.35;97467.78;5455666;26;20462;-77
2024/04/15 07:34:44;;;;;;;10.60;6.03;;;13.10;78.10;;;12.38;71.51;97466.16;5459065;26;20594;-74
2024/04/15 07:37:13;;;;;;;6.77;6.00;;;13.10;78.00;;;12.48;71.79;97468.22;5431421;26;20610;-78
2024/04/15 07:39:40;;;;;;;6.50;5.97;;;13.10;78.10;;;12.30;71.57;97475.47;5414950;26;20835;-77
2024/04/15 07:42:10;;;;;;;6.50;5.90;;;13.10;77.90;;;12.14;72.86;97478.94;5455207;26;20469;-78
2024/04/15 07:44:39;;;;;;;11.03;6.90;;;13.00;78.50;;;12.30;72.65;97470.06;5456842;26;20480;-76
2024/04/15 07:47:08;;;;;;;7.73;7.00;;;13.00;78.60;;;12.51;72.27;97461.47;5435692;26;20483;-79
2024/04/15 07:49:35;;;;;;;6.18;5.57;;;13.10;78.60;;;13.07;69.46;97464.41;5452526;26;20832;-76
2024/04/15 07:52:05;;;;;;;8.03;5.20;;;13.50;78.00;;;12.92;68.64;97464.94;5424461;26;20310;-81
2024/04/15 07:54:32;;;;;;;8.83;5.50;;;13.50;76.70;;;12.45;69.17;97420.75;5450960;26;20782;-80
2024/04/15 07:57:01;;;;;;;6.63;6.10;;;13.50;76.60;;;12.67;68.63;97487.84;5455672;26;20517;-81
2024/04/15 07:59:28;;;;;;;6.20;5.50;;;13.50;76.20;;;12.31;71.02;97492.53;5453369;26;20599;-79
2024/04/15 08:02:00;;;;;;;6.57;5.67;;;13.20;76.70;;;12.41;70.60;97492.75;5465415;26;20475;-79
2024/04/15 08:04:27;;;;;;;6.33;5.23;;;13.20;77.10;;;12.57;70.17;97493.84;5418426;26;20461;-79
2024/04/15 08:06:56;;;;;;;6.33;5.20;;;13.20;77.20;;;12.59;70.59;97488.22;5449774;26;20480;-72
2024/04/15 08:09:22;;;;;;;6.53;6.00;;;13.30;77.40;;;12.51;72.43;97484.00;5455421;26;20529;-74
2024/04/15 08:11:52;;;;;;;6.70;6.10;;;13.20;78.10;;;12.55;71.82;97496.00;5469136;26;20469;-76
2024/04/15 08:14:20;;;;;;;5.97;5.30;;;13.20;77.70;;;12.45;70.73;97502.03;5444741;26;20524;-82
2024/04/15 08:16:49;;;;;;;6.73;5.90;;;13.10;77.10;;;12.49;71.96;97491.53;5452877;26;20460;-76
2024/04/15 08:19:20;;;;;;;6.63;5.63;;;13.10;77.90;;;12.34;72.45;97489.34;5458199;26;20505;-75
2024/04/15 08:21:49;;;;;;;6.67;6.10;;;13.00;77.80;;;12.18;73.26;97494.44;5431573;26;20562;-75
2024/04/15 08:24:17;;;;;;;8.67;6.20;;;12.90;78.00;;;12.09;74.76;97479.63;5423517;26;20513;-74
2024/04/15 08:26:46;;;;;;;7.10;6.40;;;12.90;79.10;;;12.14;77.24;97482.44;5459873;26;20868;-76
2024/04/15 08:29:14;;;;;;;6.83;6.00;;;12.80;80.00;;;12.46;79.06;97486.63;5468744;26;20463;-76
2024/04/15 08:31:43;;;;;;;7.00;6.40;;;13.00;81.40;;;12.52;75.79;97491.06;5467162;26;20499;-77
2024/04/15 08:34:09;;;;;;;7.00;6.20;;;13.20;80.50;;;12.37;73.71;97494.31;5451280;26;21089;-76
2024/04/15 08:36:41;;;;;;;6.90;6.17;;;13.10;79.10;;;12.46;74.45;97490.13;5419867;26;20547;-77
2024/04/15 08:39:08;;;;;;;7.47;6.77;;;13.20;79.40;;;12.39;74.40;97496.75;5433805;26;20474;-78
2024/04/15 08:41:50;;;;;;;6.87;6.27;;;13.10;79.40;;;12.50;75.50;97503.19;5468906;26;20550;-76
2024/04/15 08:44:23;;;;;;;8.17;6.67;;;13.20;79.90;;;12.52;76.52;97503.78;5427214;26;20526;-77
2024/04/15 08:46:55;;;;;;;6.90;6.30;;;13.20;80.20;;;12.72;76.10;97506.91;5426138;26;20481;-75
2024/04/15 08:49:24;;;;;;;7.00;6.40;;;13.40;80.40;;;12.80;76.30;97492.13;5459827;26;20472;-75
2024/04/15 08:51:58;;;;;;;11.77;6.60;;;13.50;80.50;;;12.50;78.37;97497.78;5453233;26;20461;-74
2024/04/15 08:54:25;;;;;;;7.50;6.80;;;13.30;80.80;;;12.33;77.43;97488.53;5455236;26;20501;-76
2024/04/15 08:56:59;;;;;;;7.67;6.77;;;13.20;80.90;;;12.30;78.39;97471.94;5430037;26;20577;-74
2024/04/15 08:59:26;;;;;;;9.23;7.17;;;13.10;81.30;;;12.55;79.78;97485.16;5457167;26;20611;-72
2024/04/15 09:01:56;;;;;;;7.90;6.83;;;13.30;81.90;;;12.70;79.19;97473.78;5461116;26;20549;-74
2024/04/15 09:04:23;;;;;;;7.70;6.97;;;13.40;82.10;;;12.94;75.29;97457.41;5467277;26;20517;-75
2024/04/15 09:06:52;;;;;;;8.23;5.93;;;13.70;80.80;;;13.08;74.27;97447.06;5452467;26;21105;-77
2024/04/15 09:09:21;;;;;;;6.53;5.90;;;13.80;79.70;;;13.36;72.20;97452.66;5456255;26;20483;-74
2024/04/15 09:11:52;;;;;;;7.57;6.80;;;14.00;79.10;;;13.64;74.48;97445.50;5439674;26;20468;-75
2024/04/15 09:14:19;;;;;;;7.20;6.30;;;14.30;80.70;;;13.66;73.00;97427.91;5463217;26;20526;-74
2024/04/15 09:16:48;;;;;;;13.27;7.13;;;14.40;79.80;;;14.06;73.03;97438.72;5466518;26;20524;-75
2024/04/15 09:19:16;;;;;;;10.63;7.50;;;14.60;80.10;;;13.56;71.07;97379.72;5447844;26;20463;-74
2024/04/15 09:21:46;;;;;;;7.10;6.40;;;14.60;78.80;;;14.34;72.30;97420.59;5460188;26;20507;-73
2024/04/15 09:24:12;;;;;;;6.43;5.83;;;14.80;79.70;;;14.57;68.41;97404.00;5453739;26;20611;-74
2024/04/15 09:26:44;;;;;;;6.17;5.67;;;15.10;78.30;;;14.66;67.79;97420.66;5444429;26;20457;-75
2024/04/15 09:29:11;;;;;;;6.60;5.90;;;15.30;77.40;;;14.45;71.66;97406.84;5429300;26;20455;-79
2024/04/15 09:31:41;;;;;;;6.47;5.70;;;15.40;78.90;;;14.30;65.44;97396.66;5458152;26;20536;-75
2024/04/15 09:34:08;;;;;;;6.40;5.70;;;15.00;75.10;;;14.56;67.12;97402.38;5428567;26;20594;-73
2024/04/15 09:36:42;;;;;;;8.37;5.63;;;15.10;76.30;;;15.09;65.09;97381.88;5431328;26;20477;-77
2024/04/15 09:39:09;;;;;;;8.40;6.00;;;15.40;76.00;;;15.17;65.27;97377.88;5462052;26;20526;-75
2024/04/15 09:41:45;;;;;;;9.67;5.37;;;15.70;76.10;;;15.05;62.55;97337.25;5468472;26;20467;-74
2024/04/15 09:44:13;;;;;;;6.57;5.97;;;15.90;74.70;;;14.86;64.63;97370.28;5456106;26;20549;-76
2024/04/15 09:46:43;;;;;;;7.10;6.50;;;15.80;74.80;;;14.25;66.78;97384.91;5469958;26;20510;-76
2024/04/15 09:49:13;;;;;;;6.00;5.17;;;15.20;75.00;;;14.54;64.68;97376.50;5431322;26;20464;-77
2024/04/15 09:51:44;;;;;;;6.93;5.70;;;15.10;74.10;;;14.30;67.10;97374.09;5443927;26;20640;-75
2024/04/15 09:54:15;;;;;;;6.37;5.83;;;15.00;75.20;;;14.04;68.12;97362.94;5426231;26;20470;-77
2024/04/15 09:56:50;;;;;;;8.53;6.53;;;14.80;75.70;;;13.74;68.80;97358.78;5457409;26;20458;-75
2024/04/15 09:59:17;;;;;;;6.90;6.20;;;14.50;75.50;;;13.95;68.26;97348.16;5457323;26;20465;-75
2024/04/15 10:01:47;;;;;;;7.80;7.00;;;14.50;76.20;;;14.23;69.96;97349.03;5462556;26;20525;-74
2024/04/15 10:04:20;;;;;;;7.10;6.50;;;14.60;77.20;;;14.15;71.28;97347.59;5454072;26;20460;-77
2024/04/15 10:06:51;;;;;;;8.03;7.33;;;14.80;78.50;;;13.94;71.40;97344.63;5462909;26;20457;-77
2024/04/15 10:09:18;;;;;;;10.13;6.90;;;14.70;77.90;;;14.12;69.18;97345.38;5466439;26;20863;-76
2024/04/15 10:11:52;;;;;;;8.67;7.77;;;14.70;77.00;;;14.07;68.77;97340.72;5434273;26;20566;-79
2024/04/15 10:14:19;;;;;;;9.03;7.23;;;14.70;76.50;;;14.10;71.16;97332.03;5416381;26;20990;-77
2024/04/15 10:16:49;;;;;;;11.40;7.23;;;14.80;77.90;;;13.94;69.07;97271.31;5463342;26;20480;-80
2024/04/15 10:19:23;;;;;;;8.40;7.70;;;14.90;77.30;;;14.56;67.80;97314.56;5427486;26;20463;-80
2024/04/15 10:21:53;;;;;;;8.03;7.23;;;15.10;76.80;;;14.63;66.34;97293.38;5460339;26;20454;-78
2024/04/15 10:24:22;;;;;;;7.63;6.83;;;15.40;75.70;;;14.65;65.42;97315.72;5451805;26;20549;-76